Weather observations for the past three days for
Slayton Municipal Airport
Imperial (Metric)
Date Time (cdt) Wind (mph) Vis. (mi.) Weather Sky Cond. Temperature (ºF) Relative Humidity Wind Chill (°F) Heat Index (°F) Pressure Precipitation (in)
Air Dwpt 6 hour altimeter (in) sea level (mb) 1 hr 3 hr 6 hr
Max. Min.
08 17:53 NW 14 G 28 10.00 Mostly Cloudy BKN110 72.9 30.2 21% 29.65 0.0
08 17:33 W 18 G 28 10.00 Mostly Cloudy BKN100 72.7 28.4 19% 29.65 0.0
08 17:13 W 17 G 28 10.00 Partly Cloudy SCT100 73.4 30 20% 29.65 0.0
08 16:53 NW 20 G 25 10.00 Partly Cloudy SCT110 73 29.3 20% 29.65 0.0
08 16:33 NW 24 G 32 10.00 Mostly Cloudy and Breezy BKN110 73.2 30 20% 29.65 0.0
08 16:13 W 20 G 28 10.00 Mostly Cloudy BKN110 72.7 28.8 20% 29.66 0.0
08 15:53 NW 21 G 30 10.00 Partly Cloudy and Breezy SCT100 SCT120 72.3 29.3 20% 29.65 0.0
08 15:33 W 18 G 36 10.00 Partly Cloudy SCT110 75.4 28 17% 76 29.66 0.0
08 15:13 NW 22 G 29 10.00 Partly Cloudy and Breezy SCT110 74.3 27.9 18% 29.66 0.0
08 14:53 W 20 G 26 10.00 Partly Cloudy SCT110 74.1 26.4 17% 29.67 0.0
08 14:33 W 15 G 25 10.00 Partly Cloudy SCT120 74.1 26.8 17% 29.67 0.0
08 14:13 W 15 G 31 10.00 Mostly Cloudy BKN110 73.8 25.3 16% 29.68 0.0
08 13:53 W 15 G 24 10.00 Mostly Cloudy BKN110 73.6 26.6 17% 29.69 0.0
08 13:33 W 12 G 21 10.00 Mostly Cloudy BKN120 71.6 24.8 17% 29.7 0.0
08 13:13 W 21 G 24 10.00 Mostly Cloudy and Breezy BKN120 72 25.3 17% 29.71 0.0
08 12:53 W 14 G 24 10.00 Fair CLR 71.4 25.9 71.8 49.3 18% 29.72 0.0
08 12:33 W 14 G 22 10.00 Fair CLR 70.2 25.3 19% 29.72 0.0
08 12:13 W 12 G 18 10.00 Fair CLR 69.3 25.9 20% 29.74 0.0
08 11:53 W 10 G 24 10.00 Fair CLR 68.5 25 19% 29.75 0.0
08 11:33 W 14 G 18 10.00 Fair CLR 67.8 24.1 19% 29.75 0.0
08 11:13 W 9 G 24 10.00 Fair CLR 67.1 24.6 20% 29.76 0.0
08 10:53 W 16 G 22 10.00 Fair CLR 66.2 23.7 20% 29.77 0.0
08 10:33 W 15 G 22 10.00 Fair CLR 64.8 24.3 21% 29.77 0.0
08 10:13 W 13 G 18 10.00 Fair CLR 64 23.9 22% 29.78 0.0
08 09:53 W 16 G 21 10.00 Fair CLR 62.4 22.6 22% 29.78 0.0
08 09:33 W 16 G 20 10.00 Partly Cloudy SCT110 61 23.7 24% 29.79 0.0
08 09:13 W 16 10.00 Mostly Cloudy SCT090 BKN110 60.1 22.1 23% 29.79 0.0
08 08:53 SW 14 10.00 Mostly Cloudy BKN090 57.6 22.8 26% 29.79 0.0
08 08:33 SW 15 10.00 Partly Cloudy SCT090 57.2 23.5 27% 29.8 0.0
08 08:13 SW 15 10.00 Partly Cloudy SCT120 55.8 24.6 30% 29.8 0.0
08 07:53 SW 12 10.00 Partly Cloudy SCT100 SCT120 54 25.3 33% 29.8 0.0
08 07:33 SW 9 10.00 Mostly Cloudy BKN100 BKN120 50.4 25.3 38% 29.8 0.0
08 07:13 SW 7 10.00 Mostly Cloudy BKN090 BKN120 49.5 24.6 38% 47 29.8 0.0
08 06:53 SW 7 10.00 Mostly Cloudy BKN090 BKN120 48.7 24.4 49.3 40.6 39% 46 29.8 0.0
08 06:33 SW 5 10.00 Partly Cloudy SCT110 45.1 25.3 46% 43 29.8 0.0
08 06:13 SW 8 10.00 Mostly Cloudy BKN110 44.1 23 43% 40 29.8 0.0
08 05:53 SW 9 10.00 Partly Cloudy SCT110 43.9 20.7 40% 39 29.8 0.0
08 05:33 SW 8 10.00 Fair CLR 42.1 20.1 41% 38 29.8 0.0
08 05:13 S 7 10.00 Fair CLR 43.5 20.1 39% 40 29.8 0.0
08 04:53 S 7 10.00 Fair CLR 43.2 20.3 40% 40 29.8 0.0
08 04:33 S 8 10.00 Fair CLR 42.8 20.8 42% 39 29.8 0.0
08 04:13 S 8 10.00 Fair CLR 43.7 20.8 40% 40 29.8 0.0
08 03:53 S 8 10.00 Fair CLR 45 20.7 38% 41 29.81 0.0
08 03:33 S 7 10.00 Fair CLR 45.1 20.8 38% 42 29.81 0.0
08 03:13 S 7 10.00 Fair CLR 44.8 21 39% 41 29.81 0.0
08 02:53 S 6 10.00 Fair CLR 48.6 19.9 32% 47 29.81 0.0
08 02:33 S 7 10.00 Fair CLR 49.3 19.9 31% 47 29.82 0.0
08 02:13 S 6 10.00 Fair CLR 43.3 23 45% 40 29.82 0.0
08 01:53 S 3 10.00 Fair CLR 44.8 21.9 40% 29.82 0.0
08 01:33 S 6 10.00 Fair CLR 46.2 22.1 38% 44 29.83 0.0
08 01:13 S 5 10.00 Fair CLR 47.1 22.3 37% 46 29.83 0.0
08 00:53 Calm 10.00 Fair CLR 46.6 22.3 61.9 42.8 38% 29.83 0.0
08 00:33 Calm 10.00 Fair CLR 43.3 22.6 44% 29.84 0.0
08 00:13 Calm 10.00 Fair CLR 43 23.7 47% 29.84 0.0
07 23:53 Calm 10.00 Fair CLR 45.5 22.8 41% 29.84 0.0
07 23:33 Calm 10.00 Fair CLR 45.9 22.5 40% 29.84 0.0
07 23:13 Calm 10.00 Fair CLR 45 23.4 43% 29.84 0.0
07 22:53 Calm 10.00 Fair CLR 46 22.6 40% 29.84 0.0
07 22:33 N 3 10.00 Fair CLR 45.5 23 41% 29.84 0.0
07 22:13 Calm 10.00 Fair CLR 48 23.4 38% 29.84 0.0
07 21:53 Calm 10.00 Fair CLR 50 22.5 34% 29.84 0.0
07 21:33 Calm 10.00 Fair CLR 50.7 21.9 32% 29.84 0.0
07 21:13 W 3 10.00 Fair CLR 53.6 21.4 28% 29.83 0.0
07 20:53 NW 3 10.00 Fair CLR 53.4 22.1 29% 29.83 0.0
07 20:33 NW 6 10.00 Fair CLR 54.1 22.6 29% 29.82 0.0
07 20:13 NW 6 10.00 Fair CLR 56.3 22.3 27% 29.82 0.0
07 19:53 NW 9 10.00 Fair CLR 59.7 20.8 22% 29.81 0.0
07 19:33 W 12 G 16 10.00 Fair CLR 61 19.6 20% 29.81 0.0
07 19:13 W 14 10.00 Fair CLR 61.9 19.2 19% 29.8 0.0
07 18:53 NW 8 10.00 Fair CLR 61.9 21.7 63.5 56.8 21% 29.81 0.0
07 18:33 W 7 G 18 10.00 Fair CLR 62.4 19.2 19% 29.81 0.0
07 18:13 W 12 10.00 Fair CLR 63 20.8 20% 29.81 0.0
07 17:53 NW 7 10.00 Fair CLR 62.1 19.2 19% 29.81 0.0
07 17:33 W 7 G 18 10.00 Fair CLR 62.8 17.2 17% 29.82 0.0
07 17:13 NW 13 G 28 10.00 Fair CLR 62.6 17.4 17% 29.81 0.0
07 16:53 NW 8 G 16 10.00 Fair CLR 63.1 20.1 19% 29.82 0.0
07 16:33 NW 6 10.00 Fair CLR 62.2 18.7 18% 29.82 0.0
07 16:13 W 14 G 18 10.00 Fair CLR 62.1 19.9 20% 29.83 0.0
07 15:53 W 12 G 20 10.00 Fair CLR 62.1 19.8 19% 29.83 0.0
07 15:33 NW 12 G 21 10.00 Fair CLR 61.7 21 21% 29.84 0.0
07 15:13 NW 6 G 9 10.00 Fair CLR 60.1 20.5 22% 29.84 0.0
07 14:53 W 13 10.00 Fair CLR 61 20.8 21% 29.85 0.0
07 14:33 N 5 10.00 Fair CLR 60.1 20.3 21% 29.85 0.0
07 14:13 W 16 G 21 10.00 Fair CLR 59.9 21.9 23% 29.85 0.0
07 13:53 W 5 G 21 10.00 Fair CLR 59 21.2 23% 29.85 0.0
07 13:33 NW 12 10.00 Fair CLR 57.6 22.1 25% 29.86 0.0
07 13:13 N 6 G 18 10.00 Fair CLR 57.2 21.4 25% 29.86 0.0
07 12:53 NE 8 10.00 Fair CLR 56.5 21.4 56.5 36.7 26% 29.87 0.0
07 12:33 N 10 10.00 Fair CLR 55.9 22.1 27% 29.87 0.0
07 11:53 NE 9 10.00 Fair CLR 55.4 23.9 30% 29.88 0.0
07 11:33 N 9 10.00 Fair CLR 54 22.1 29% 29.88 0.0
07 11:13 NE 3 10.00 Fair CLR 53.4 21.2 28% 29.89 0.0
07 10:53 NE 6 10.00 Fair CLR 53.4 21.9 29% 29.89 0.0
07 10:33 NE 7 10.00 Fair CLR 52.5 23.4 32% 29.89 0.0
07 10:13 Calm 10.00 Fair CLR 52 26.1 37% 29.89 0.0
07 09:53 E 5 10.00 Fair CLR 51.3 26.4 38% 29.89 0.0
07 09:33 SE 7 10.00 Fair CLR 50.2 26.6 40% 29.88 0.0
07 09:13 E 6 10.00 Fair CLR 48.4 26.2 42% 46 29.89 0.0
07 08:53 SE 8 10.00 Fair CLR 46.9 26.6 45% 44 29.89 0.0
07 08:33 E 7 10.00 Fair CLR 45.5 25.5 46% 42 29.89 0.0
07 08:13 E 7 10.00 Fair CLR 43.9 25.3 48% 40 29.89 0.0
07 07:53 E 7 10.00 Fair CLR 41.5 24.6 51% 38 29.89 0.0
07 07:33 E 7 10.00 Fair CLR 40.5 25 54% 36 29.89 0.0
07 07:13 NE 5 10.00 Fair CLR 37.9 24.6 59% 35 29.89 0.0
07 06:53 Calm 10.00 Partly Cloudy SCT110 36.1 24.6 41 36 63% 29.89 0.0
07 06:33 NE 6 10.00 Partly Cloudy SCT110 36.9 23.7 59% 33 29.89 0.0
07 06:13 E 7 10.00 Partly Cloudy SCT110 36.1 23.5 60% 31 29.89 0.0
07 05:53 NE 7 10.00 Fair CLR 37 23.5 58% 32 29.89 0.0
07 05:33 E 8 10.00 Fair CLR 37.4 23.5 57% 32 29.89 0.0
07 05:13 E 7 10.00 Partly Cloudy SCT070 SCT095 37.2 23.9 59% 32 29.91 0.0
07 04:53 NE 7 10.00 Partly Cloudy SCT042 SCT060 SCT075 38.8 23.5 54% 34 29.91 0.0
07 04:33 NE 5 10.00 Mostly Cloudy SCT042 SCT060 BKN070 38.1 24.8 59% 35 29.92 0.0
07 04:13 N 7 10.00 Mostly Cloudy SCT070 BKN090 BKN120 38.3 23.9 56% 34 29.92 0.0
07 03:53 E 8 10.00 Mostly Cloudy BKN090 BKN110 38.8 23.7 55% 34 29.91 0.0
07 03:33 E 8 10.00 Fair CLR 37.8 23.5 57% 32 29.91 0.0
07 03:13 NE 9 10.00 Fair CLR 37.4 23.9 58% 31 29.91 0.0
07 02:53 NE 8 10.00 Partly Cloudy SCT080 SCT090 SCT110 38.1 24.6 58% 33 29.91 0.0
07 02:33 NE 7 10.00 Mostly Cloudy SCT070 BKN090 BKN110 38.3 23.9 56% 34 29.92 0.0
07 02:13 E 7 10.00 Partly Cloudy SCT100 39.6 23.9 54% 35 29.92 0.0
07 01:53 E 8 10.00 Mostly Cloudy SCT090 BKN110 39.2 23.9 54% 34 29.92 0.0
07 01:33 E 7 10.00 Mostly Cloudy SCT070 BKN090 BKN120 40.1 24.1 53% 36 29.94 0.0
07 01:13 E 6 10.00 Mostly Cloudy SCT085 BKN120 40.1 23.9 52% 37 29.94 0.0
07 00:53 E 7 10.00 Mostly Cloudy SCT085 BKN120 41 23.9 51.1 37.9 51% 37 29.95 0.0
07 00:33 NE 5 10.00 Mostly Cloudy SCT085 BKN120 40.3 24.8 54% 38 29.96 0.0
07 00:13 NE 3 10.00 Mostly Cloudy SCT075 SCT085 BKN110 39.4 24.6 56% 29.96 0.0
06 23:53 NE 3 10.00 Mostly Cloudy BKN100 38.3 24.8 58% 29.96 0.0
06 23:33 Calm 10.00 Mostly Cloudy BKN100 37.9 23.5 56% 29.96 0.0
06 23:13 Calm 10.00 Fair CLR 40.5 23.5 51% 29.96 0.0
06 22:53 NE 3 10.00 Fair CLR 40.8 23 49% 29.96 0.0
06 22:33 NE 5 10.00 Fair CLR 41.7 23.4 48% 39 29.96 0.0
06 22:13 NE 5 10.00 Partly Cloudy SCT100 42.4 23.5 47% 40 29.97 0.0
06 21:53 NE 3 10.00 Partly Cloudy SCT095 43.5 23.5 45% 29.97 0.0
06 21:33 NE 5 10.00 Partly Cloudy SCT095 44.1 23.2 44% 42 29.97 0.0
06 21:13 NE 5 10.00 Partly Cloudy SCT090 45.5 23.4 42% 44 29.96 0.0
06 20:53 NE 3 10.00 Mostly Cloudy BKN090 46.2 22.6 39% 29.96 0.0
06 20:33 N 5 7.00 Partly Cloudy SCT090 46.4 23 40% 45 29.95 0.0
06 20:13 N 6 10.00 Mostly Cloudy BKN080 48.2 22.8 37% 46 29.95 0.0
06 19:53 NW 8 10.00 Partly Cloudy SCT080 49.5 22.5 35% 47 29.96 0.0
06 19:33 NW 12 10.00 Mostly Cloudy BKN080 50.4 21.9 33% 29.96 0.0
06 19:13 NW 9 10.00 Mostly Cloudy BKN080 50.9 22.1 32% 29.96 0.0
06 18:53 NW 12 G 17 10.00 Mostly Cloudy SCT070 BKN080 50.9 22.3 52.5 46.8 33% 29.97 0.0
06 18:33 NW 7 G 20 10.00 Mostly Cloudy BKN080 51.6 22.5 32% 29.97 0.0
06 18:13 NW 12 10.00 Overcast SCT070 OVC080 51.6 22.1 31% 29.97 0.0
06 17:53 NW 14 G 20 10.00 Overcast OVC070 50.9 22.1 32% 29.97 0.0
06 17:33 NW 13 G 17 10.00 Overcast OVC080 50.7 22.3 33% 29.98 0.0
06 17:13 W 17 G 24 10.00 Mostly Cloudy BKN075 51.6 21.9 31% 29.98 0.0
06 16:53 W 12 G 23 10.00 Mostly Cloudy BKN070 51.8 21.6 31% 29.99 0.0
06 16:33 NW 18 G 23 10.00 Overcast OVC070 51.3 21.7 31% 29.99 0.0
06 16:13 NW 18 G 24 10.00 Overcast SCT070 OVC080 51.3 21.9 32% 29.99 0.0
06 15:53 NW 15 G 24 10.00 Overcast OVC070 50.7 22.1 33% 30 0.0
06 15:33 W 10 10.00 Overcast OVC060 50.4 21.6 32% 30.01 0.0
06 15:13 NW 12 G 20 10.00 Overcast OVC060 50.2 22.8 34% 30.01 0.0
06 14:53 W 17 G 23 10.00 Mostly Cloudy BKN060 BKN070 49.6 23 35% 44 30.02 0.0
06 14:33 NW 20 G 23 10.00 Mostly Cloudy BKN060 49.8 21.9 33% 44 30.02 0.0
06 14:13 W 12 G 29 10.00 Overcast OVC060 48.7 21.7 34% 44 30.02 0.0
06 13:53 NW 9 G 22 10.00 Mostly Cloudy BKN060 49.3 22.1 34% 46 30.03 0.0
06 13:33 NW 18 G 24 10.00 Overcast OVC060 47.5 21.9 36% 41 30.03 0.0
06 13:13 NW 17 G 25 10.00 Overcast OVC050 47.7 23 38% 42 30.04 0.0
06 12:53 NW 18 G 26 10.00 Overcast OVC050 46.8 22.6 46.8 37.4 39% 40 30.04 0.0
06 12:33 NW 18 G 23 10.00 Overcast OVC050 45.3 21.9 40% 38 30.04 0.0
06 12:13 NW 15 G 22 10.00 Overcast OVC050 44.8 21.6 40% 39 30.05 0.0
06 11:53 NW 18 G 24 10.00 Overcast OVC050 44.2 21.7 41% 37 30.05 0.0
06 11:33 NW 16 G 20 10.00 Overcast OVC060 43.2 22.1 43% 36 30.06 0.0
06 11:13 W 16 G 23 10.00 Overcast OVC060 43.2 22.5 44% 36 30.06 0.0
06 10:53 NW 14 G 23 10.00 Overcast SCT048 OVC060 42.8 22.5 45% 36 30.06 0.0
06 10:33 NW 17 G 24 10.00 Overcast SCT048 OVC060 42.6 22.3 44% 35 30.06 0.0
06 10:13 W 14 G 22 10.00 Overcast SCT048 OVC060 41.9 22.8 47% 35 30.06 0.0
06 09:53 NW 14 10.00 Overcast SCT044 OVC060 41.4 22.6 47% 35 30.06 0.0
06 09:33 W 9 G 17 10.00 Overcast OVC060 40.8 22.3 48% 36 30.06 0.0
06 09:13 W 12 10.00 Overcast OVC060 40.1 23 51% 34 30.06 0.0
06 08:53 NW 10 10.00 Overcast OVC060 39.9 24.3 54% 34 30.06 0.0
06 08:33 W 9 10.00 Overcast OVC060 39.2 23.7 54% 34 30.06 0.0
06 08:13 NW 8 10.00 Overcast OVC070 38.7 25.2 58% 34 30.05 0.0
06 07:53 NW 10 10.00 Overcast OVC070 38.5 25.5 60% 32 30.05 0.0
06 07:33 W 7 10.00 Overcast OVC070 37.9 26.1 62% 33 30.04 0.0
06 07:13 NW 6 10.00 Overcast OVC060 37.4 26.2 64% 33 30.04 0.0
06 06:53 W 6 10.00 Overcast OVC060 37.4 25.9 37.4 32 63% 33 30.03 0.0
06 06:33 W 6 10.00 Overcast OVC060 36.7 26.4 66% 33 30.03 0.0
06 06:13 W 3 10.00 Overcast OVC060 36.7 26.2 66% 30.01 0.0
06 05:53 W 5 10.00 Overcast OVC060 36.7 26.1 65% 33 30.01 0.0
06 05:33 W 3 10.00 Overcast OVC060 36.5 26.2 66% 30.01 0.0
06 05:13 NW 5 10.00 Overcast OVC060 36.5 26.8 68% 33 30 0.0
06 04:53 NW 5 10.00 Overcast OVC060 37.4 25.5 62% 34 30 0.0
06 04:33 NW 5 10.00 Overcast OVC060 36.7 26.6 67% 33 30 0.0
06 04:13 W 3 10.00 Overcast OVC060 36.9 26.2 65% 30.01 0.0
06 03:53 NW 3 10.00 Overcast OVC060 37.2 25.3 62% 30 0.0
06 03:33 N 5 10.00 Overcast OVC060 36.9 25.3 63% 34 29.99 0.0
06 03:13 NW 5 10.00 Overcast SCT055 OVC070 36.7 26.2 66% 33 29.99 0.0
06 02:53 NW 6 10.00 Overcast OVC070 34.9 26.2 71% 30 29.99 0.0
06 02:33 NW 6 10.00 Overcast OVC070 35.2 25.5 68% 31 29.99 0.0
06 02:13 NW 3 10.00 Overcast OVC070 35.8 25.7 67% 29.99 0.0
06 01:53 NW 5 10.00 Overcast SCT060 OVC070 34.5 25.3 69% 31 29.99 0.0
06 01:33 NW 6 10.00 Overcast OVC070 33.8 24.1 68% 29 29.99 0.0
06 01:13 W 6 10.00 Partly Cloudy SCT070 32.2 22.6 68% 27 29.99 0.0
06 00:53 NW 6 10.00 Partly Cloudy SCT070 32 22.1 47.5 32 67% 27 29.98 0.0
06 00:33 NW 6 10.00 Mostly Cloudy BKN075 BKN080 32.7 22.6 66% 28 29.98 0.0
06 00:13 W 3 10.00 Mostly Cloudy BKN075 33.1 21.9 64% 29.98 0.0
05 23:53 W 5 10.00 Partly Cloudy SCT075 33.8 22.6 64% 30 29.98 0.0
05 23:33 W 6 10.00 Partly Cloudy SCT050 SCT075 35.6 23 60% 31 29.99 0.0
05 23:13 W 5 10.00 Partly Cloudy SCT050 SCT065 33.8 21.7 61% 30 29.99 0.0
05 22:53 NW 5 10.00 Fair CLR 35.2 21.7 58% 32 29.98 0.0
05 22:33 NW 5 10.00 Fair CLR 35.8 21.9 57% 32 29.97 0.0
05 22:13 NW 6 10.00 Partly Cloudy SCT070 37.6 22.1 54% 34 29.96 0.0
05 21:53 NW 5 10.00 Mostly Cloudy BKN070 39 22.3 51% 36 29.96 0.0
05 21:33 NW 5 10.00 Partly Cloudy SCT070 40.1 22.5 49% 37 29.95 0.0
05 21:13 NW 6 10.00 Partly Cloudy SCT075 41 21.9 47% 38 29.94 0.0
05 20:53 NW 7 10.00 Partly Cloudy SCT075 42.6 21.6 43% 39 29.94 0.0
05 20:33 NW 10 G 17 10.00 Fair CLR 43.7 20.7 40% 39 29.93 0.0
05 20:13 NW 13 G 18 10.00 Partly Cloudy SCT060 44.6 21 39% 39 29.92 0.0
05 19:53 NW 15 G 20 10.00 Partly Cloudy SCT060 SCT075 45.1 21 38% 39 29.92 0.0
05 19:33 NW 15 10.00 Mostly Cloudy BKN075 46.2 21.6 38% 40 29.91 0.0
05 19:13 NW 12 G 20 10.00 Overcast SCT065 OVC075 46.8 21.2 36% 42 29.91 0.0
05 18:53 NW 14 10.00 Overcast SCT065 OVC075 46.9 21.4 50.5 46.9 36% 42 29.9 0.0
05 18:33 NW 16 G 23 10.00 Overcast SCT065 OVC075 47.1 21 36% 41 29.9 0.0
Date Time (cdt) Wind (mph) Vis. (mi.) Weather Sky Cond. Air Dwpt Max. Min. Relative Humidity Wind Chill (°F) Heat Index (°F) altimeter (in) sea level (mb) 1 hr 3 hr 6 hr
6 hour
Temperature (ºF) Pressure Precipitation (in)